createdAt,value
2018-02-19T00:01:20.494Z,75.60
2018-02-19T00:03:46.849Z,74.67
2018-02-19T00:06:13.422Z,72.10
2018-02-19T00:08:39.762Z,74.27
2018-02-19T00:11:06.137Z,74.80
2018-02-19T00:13:32.564Z,71.90
2018-02-19T00:15:58.939Z,70.73
2018-02-19T00:18:25.293Z,76.97
2018-02-19T00:20:51.691Z,73.60
2018-02-19T00:23:18.124Z,79.47
2018-02-19T00:25:44.477Z,81.43
2018-02-19T00:28:10.845Z,81.60
2018-02-19T00:30:37.245Z,83.67
2018-02-19T00:33:03.605Z,85.73
2018-02-19T00:35:29.969Z,86.70
2018-02-19T00:37:56.337Z,92.33
2018-02-19T00:40:22.718Z,95.13
2018-02-19T00:42:49.086Z,94.43
2018-02-19T00:45:15.441Z,88.93
2018-02-19T00:47:41.829Z,81.60
2018-02-19T00:50:08.174Z,85.87
2018-02-19T00:52:34.543Z,79.20
2018-02-19T00:55:00.889Z,75.90
2018-02-19T00:57:27.281Z,89.73
2018-02-19T00:59:53.636Z,79.73
2018-02-19T01:02:19.989Z,78.37
2018-02-19T01:04:46.401Z,75.30
2018-02-19T01:07:12.795Z,74.47
2018-02-19T01:09:39.138Z,74.30
2018-02-19T01:12:05.537Z,70.13
2018-02-19T01:14:31.935Z,69.67
2018-02-19T01:16:58.302Z,72.40
2018-02-19T01:19:24.714Z,66.97
2018-02-19T01:21:51.126Z,65.63
2018-02-19T01:24:17.476Z,71.67
2018-02-19T01:26:43.853Z,65.23
2018-02-19T01:29:10.222Z,64.87
2018-02-19T01:31:36.742Z,69.17
2018-02-19T01:34:03.157Z,72.97
2018-02-19T01:36:29.507Z,73.27
2018-02-19T01:38:55.874Z,71.67
2018-02-19T01:41:22.281Z,66.93
2018-02-19T01:43:48.634Z,70.23
2018-02-19T01:46:14.990Z,66.33
2018-02-19T01:48:41.409Z,68.07
2018-02-19T01:51:07.776Z,69.17
2018-02-19T01:53:34.142Z,67.70
2018-02-19T01:56:00.554Z,75.77
2018-02-19T01:58:26.931Z,76.10
2018-02-19T02:00:53.285Z,77.13
2018-02-19T02:03:19.703Z,73.93
2018-02-19T02:05:46.053Z,74.57
2018-02-19T02:08:12.469Z,75.73
2018-02-19T02:10:38.865Z,75.93
2018-02-19T02:13:05.241Z,75.97
2018-02-19T02:15:31.673Z,73.30
2018-02-19T02:17:58.026Z,80.93
2018-02-19T02:20:24.398Z,73.00
2018-02-19T02:22:50.830Z,79.07
2018-02-19T02:25:17.179Z,79.60
2018-02-19T02:27:43.544Z,77.50
2018-02-19T02:30:09.946Z,80.73
2018-02-19T02:32:36.298Z,84.50
2018-02-19T02:35:02.685Z,77.97
2018-02-19T02:37:29.128Z,73.70
2018-02-19T02:39:55.493Z,76.60
2018-02-19T02:42:21.896Z,79.37
2018-02-19T02:44:48.296Z,75.27
2018-02-19T02:47:14.654Z,78.40
2018-02-19T02:49:41.001Z,78.60
2018-02-19T02:52:07.398Z,76.87
2018-02-19T02:54:33.738Z,78.27
2018-02-19T02:57:00.097Z,87.40
2018-02-19T02:59:26.495Z,80.93
2018-02-19T03:01:52.838Z,79.73
2018-02-19T03:04:19.261Z,84.90
2018-02-19T03:06:45.659Z,82.77
2018-02-19T03:09:12.018Z,83.67
2018-02-19T03:11:38.361Z,78.03
2018-02-19T03:14:04.760Z,81.67
2018-02-19T03:16:31.200Z,78.80
2018-02-19T03:18:57.585Z,82.90
2018-02-19T03:21:24.045Z,78.77
2018-02-19T03:23:50.402Z,78.03
2018-02-19T03:26:16.757Z,81.80
2018-02-19T03:28:43.122Z,74.27
2018-02-19T03:31:09.551Z,82.03
2018-02-19T03:33:36.039Z,84.30
2018-02-19T03:36:02.390Z,82.23
2018-02-19T03:38:28.786Z,90.23
2018-02-19T03:40:55.136Z,84.90
2018-02-19T03:43:21.494Z,85.43
2018-02-19T03:45:47.886Z,81.37
2018-02-19T03:48:14.446Z,83.17
2018-02-19T03:50:40.793Z,81.53
2018-02-19T03:53:07.192Z,83.97
2018-02-19T03:55:33.574Z,85.30
2018-02-19T03:58:00.054Z,80.30
2018-02-19T04:00:26.826Z,82.57
2018-02-19T04:02:53.165Z,82.80
2018-02-19T04:05:19.844Z,77.53
2018-02-19T04:07:46.233Z,78.53
2018-02-19T04:10:12.813Z,81.30
2018-02-19T04:12:39.177Z,78.93
2018-02-19T04:15:05.646Z,80.43
2018-02-19T04:17:32.006Z,79.40
2018-02-19T04:19:58.360Z,87.80
2018-02-19T04:22:24.776Z,77.93
2018-02-19T04:24:51.133Z,84.13
2018-02-19T04:27:17.509Z,79.37
2018-02-19T04:29:44.106Z,74.83
2018-02-19T04:32:10.465Z,72.37
2018-02-19T04:34:36.890Z,59.10
2018-02-19T04:37:03.454Z,59.97
2018-02-19T04:39:29.985Z,57.83
2018-02-19T04:41:56.351Z,52.20
2018-02-19T04:47:23.146Z,48.23
2018-02-19T04:49:49.494Z,50.80
2018-02-19T04:52:15.921Z,46.20
2018-02-19T04:54:42.277Z,47.10
2018-02-19T04:57:08.677Z,50.10
2018-02-19T04:59:35.159Z,43.57
2018-02-19T05:02:01.530Z,48.97
2018-02-19T05:04:27.938Z,54.77
2018-02-19T05:06:54.451Z,48.73
2018-02-19T05:09:20.818Z,43.33
2018-02-19T05:11:47.205Z,42.40
2018-02-19T05:14:13.624Z,46.13
2018-02-19T05:16:40.001Z,48.97
2018-02-19T05:19:06.349Z,48.40
2018-02-19T05:21:32.740Z,55.50
2018-02-19T05:23:59.094Z,56.97
2018-02-19T05:26:25.477Z,50.87
2018-02-19T05:28:51.909Z,60.13
2018-02-19T05:31:18.254Z,54.93
2018-02-19T05:33:44.618Z,53.70
2018-02-19T05:36:11.017Z,50.77
2018-02-19T05:38:37.375Z,49.07
2018-02-19T05:41:03.773Z,55.70
2018-02-19T05:43:30.281Z,56.77
2018-02-19T05:45:56.625Z,59.13
2018-02-19T05:48:22.985Z,61.30
2018-02-19T05:50:49.409Z,58.30
2018-02-19T05:53:15.902Z,50.70
2018-02-19T05:55:42.253Z,53.40
2018-02-19T05:58:08.677Z,51.87
2018-02-19T06:00:35.154Z,54.30
2018-02-19T06:03:01.545Z,44.37
2018-02-19T06:05:28.052Z,51.47
2018-02-19T06:07:54.473Z,49.83
2018-02-19T06:10:20.830Z,51.50
2018-02-19T06:12:47.241Z,53.47
2018-02-19T06:15:13.962Z,54.00
2018-02-19T06:17:40.336Z,52.73
2018-02-19T06:20:06.745Z,54.70
2018-02-19T06:22:33.177Z,56.07
2018-02-19T06:24:59.862Z,54.47
2018-02-19T06:27:26.289Z,64.50
2018-02-19T06:29:52.709Z,63.70
2018-02-19T06:32:19.201Z,63.93
2018-02-19T06:34:45.625Z,61.67
2018-02-19T06:37:12.337Z,66.10
2018-02-19T06:39:38.832Z,67.53
2018-02-19T06:42:05.257Z,66.07
2018-02-19T06:44:31.662Z,70.43
2018-02-19T06:46:58.025Z,70.37
2018-02-19T06:49:24.418Z,91.90
2018-02-19T06:51:50.771Z,97.17
2018-02-19T06:54:17.134Z,89.23
2018-02-19T06:56:43.501Z,91.60
2018-02-19T06:59:09.931Z,99.80
2018-02-19T07:01:36.374Z,111.90
2018-02-19T07:04:02.777Z,105.53
2018-02-19T07:06:29.132Z,95.70
2018-02-19T07:08:55.587Z,102.73
2018-02-19T07:11:22.053Z,99.60
2018-02-19T07:13:48.407Z,88.33
2018-02-19T07:16:14.971Z,72.77
2018-02-19T07:18:41.477Z,68.80
2018-02-19T07:21:07.850Z,66.57
2018-02-19T07:23:34.501Z,62.97
2018-02-19T07:26:01.004Z,66.63
2018-02-19T07:28:27.469Z,77.73
2018-02-19T07:30:53.880Z,77.73
2018-02-19T07:33:20.254Z,73.70
2018-02-19T07:35:46.755Z,85.27
2018-02-19T07:38:13.194Z,79.87
2018-02-19T07:40:39.534Z,78.33
2018-02-19T07:43:05.917Z,81.03
2018-02-19T07:45:32.446Z,89.23
2018-02-19T07:47:58.845Z,76.70
2018-02-19T07:50:25.237Z,78.93
2018-02-19T07:52:51.909Z,90.50
2018-02-19T07:55:18.589Z,73.07
2018-02-19T07:57:44.935Z,61.27
2018-02-19T08:00:11.558Z,46.63
2018-02-19T08:02:37.930Z,51.47
2018-02-19T08:05:04.462Z,47.53
2018-02-19T08:07:30.857Z,57.27
2018-02-19T08:09:57.369Z,55.03
2018-02-19T08:12:23.743Z,60.33
2018-02-19T08:14:50.134Z,64.60
2018-02-19T08:17:16.496Z,68.00
2018-02-19T08:19:42.964Z,88.23
2018-02-19T08:22:09.560Z,93.00
2018-02-19T08:24:35.908Z,78.47
2018-02-19T08:27:02.266Z,60.87
2018-02-19T08:29:28.634Z,51.97
2018-02-19T08:31:55.206Z,52.17
2018-02-19T08:34:21.620Z,47.27
2018-02-19T08:36:48.060Z,43.47
2018-02-19T08:39:14.465Z,46.17
2018-02-19T08:41:40.797Z,65.30
2018-02-19T08:44:07.166Z,62.77
2018-02-19T08:46:33.773Z,59.20
2018-02-19T08:49:00.336Z,54.70
2018-02-19T08:51:26.763Z,50.63
2018-02-19T08:53:53.130Z,54.53
2018-02-19T08:56:19.562Z,60.90
2018-02-19T08:58:45.896Z,68.30
2018-02-19T09:01:12.252Z,96.47
2018-02-19T09:03:38.880Z,87.80
2018-02-19T09:06:05.237Z,78.00
2018-02-19T09:08:31.622Z,56.03
2018-02-19T09:10:58.096Z,61.43
2018-02-19T09:13:24.614Z,50.53
2018-02-19T09:15:50.969Z,60.03
2018-02-19T09:18:17.398Z,67.70
2018-02-19T09:20:43.789Z,59.37
2018-02-19T09:23:10.135Z,67.43
2018-02-19T09:25:36.592Z,59.63
2018-02-19T09:28:02.934Z,59.80
2018-02-19T09:30:29.278Z,61.83
2018-02-19T09:32:55.663Z,66.27
2018-02-19T09:35:22.050Z,55.60
2018-02-19T09:37:48.389Z,63.97
2018-02-19T09:40:14.810Z,57.20
2018-02-19T09:42:41.166Z,30.43
2018-02-19T09:45:07.525Z,38.20
2018-02-19T09:47:33.888Z,30.80
2018-02-19T09:50:00.237Z,25.23
2018-02-19T09:52:26.589Z,26.70
2018-02-19T09:54:52.955Z,27.40
2018-02-19T09:57:19.309Z,34.63
2018-02-19T09:59:45.742Z,22.87
2018-02-19T10:02:12.154Z,31.43
2018-02-19T10:04:38.497Z,33.10
2018-02-19T10:07:04.890Z,34.60
2018-02-19T10:09:31.274Z,31.33
2018-02-19T10:11:57.603Z,31.07
2018-02-19T10:14:24.043Z,31.67
2018-02-19T10:16:50.388Z,28.23
2018-02-19T10:19:16.773Z,30.57
2018-02-19T10:21:43.210Z,28.77
2018-02-19T10:24:09.659Z,25.10
2018-02-19T10:26:35.997Z,21.93
2018-02-19T10:29:02.523Z,22.50
2018-02-19T10:31:28.894Z,24.87
2018-02-19T10:33:55.245Z,30.97
2018-02-19T10:36:21.733Z,24.87
2018-02-19T10:38:48.137Z,23.23
2018-02-19T10:41:14.671Z,26.33
2018-02-19T10:43:41.056Z,22.13
2018-02-19T10:46:07.492Z,24.73
2018-02-19T10:48:33.896Z,25.20
2018-02-19T10:51:00.285Z,24.40
2018-02-19T10:53:26.662Z,23.37
2018-02-19T10:55:53.293Z,21.70
2018-02-19T10:58:19.977Z,23.47
2018-02-19T11:00:46.326Z,25.03
2018-02-19T11:03:12.800Z,27.77
2018-02-19T11:05:39.177Z,24.63
2018-02-19T11:08:05.514Z,25.57
2018-02-19T11:10:31.901Z,25.90
2018-02-19T11:12:58.260Z,26.47
2018-02-19T11:15:24.661Z,31.20
2018-02-19T11:17:51.038Z,31.63
2018-02-19T11:20:17.489Z,26.97
2018-02-19T11:22:43.901Z,25.00
2018-02-19T11:25:10.730Z,30.40
2018-02-19T11:27:37.347Z,28.63
2018-02-19T11:30:03.766Z,24.20
2018-02-19T11:32:30.176Z,29.20
2018-02-19T11:34:56.710Z,24.37
2018-02-19T11:37:23.090Z,24.90
2018-02-19T11:39:49.563Z,31.03
2018-02-19T11:42:16.018Z,26.17
2018-02-19T11:44:42.381Z,27.00
2018-02-19T11:47:08.728Z,23.20
2018-02-19T11:49:35.191Z,22.47
2018-02-19T11:52:01.527Z,26.90
2018-02-19T11:54:27.879Z,22.53
2018-02-19T11:56:54.314Z,23.17
2018-02-19T11:59:20.705Z,24.70
2018-02-19T12:01:47.211Z,28.60
2018-02-19T12:04:13.630Z,32.67
2018-02-19T12:06:40.126Z,47.00
2018-02-19T12:09:06.611Z,39.13
2018-02-19T12:11:32.955Z,27.23
2018-02-19T12:13:59.324Z,41.50
2018-02-19T12:16:25.722Z,41.23
2018-02-19T12:18:52.052Z,28.27
2018-02-19T12:21:18.423Z,27.60
2018-02-19T12:23:44.855Z,24.83
2018-02-19T12:26:11.250Z,23.77
2018-02-19T12:28:37.644Z,30.77
2018-02-19T12:31:04.097Z,22.20
2018-02-19T12:33:30.461Z,27.97
2018-02-19T12:35:56.920Z,30.03
2018-02-19T12:38:23.428Z,25.83
2018-02-19T12:40:49.805Z,27.13
2018-02-19T12:43:16.163Z,25.40
2018-02-19T12:45:42.636Z,20.30
2018-02-19T12:48:09.416Z,21.20
2018-02-19T12:50:35.865Z,24.80
2018-02-19T12:53:02.712Z,24.40
2018-02-19T12:55:29.354Z,29.43
2018-02-19T12:57:55.725Z,28.27
2018-02-19T13:00:22.114Z,38.80
2018-02-19T13:02:48.485Z,33.67
2018-02-19T13:05:14.862Z,32.90
2018-02-19T13:07:41.263Z,25.47
2018-02-19T13:10:07.693Z,25.77
2018-02-19T13:12:34.050Z,28.20
2018-02-19T13:15:00.491Z,26.13
2018-02-19T13:17:26.856Z,28.43
2018-02-19T13:19:53.203Z,31.47
2018-02-19T13:22:19.582Z,25.93
2018-02-19T13:24:45.934Z,26.87
2018-02-19T13:27:12.286Z,30.70
2018-02-19T13:29:38.745Z,28.00
2018-02-19T13:32:05.237Z,26.23
2018-02-19T13:34:31.797Z,24.73
2018-02-19T13:36:58.212Z,28.00
2018-02-19T13:39:24.641Z,29.67
2018-02-19T13:41:51.090Z,35.23
2018-02-19T13:44:17.998Z,46.83
2018-02-19T13:46:46.334Z,37.03
2018-02-19T13:49:13.674Z,39.27
2018-02-19T13:51:40.313Z,34.67
2018-02-19T13:54:06.719Z,34.00
2018-02-19T13:56:33.102Z,32.20
2018-02-19T13:58:59.514Z,31.53
2018-02-19T14:01:25.895Z,31.27
2018-02-19T14:03:52.289Z,31.83
2018-02-19T14:06:18.648Z,26.93
2018-02-19T14:08:45.010Z,26.23
2018-02-19T14:11:11.438Z,29.63
2018-02-19T14:13:37.784Z,33.13
2018-02-19T14:16:04.127Z,29.37
2018-02-19T14:18:30.574Z,28.77
2018-02-19T14:20:56.929Z,22.40
2018-02-19T14:23:23.278Z,17.97
2018-02-19T14:25:49.690Z,22.77
2018-02-19T14:28:16.092Z,30.83
2018-02-19T14:30:42.512Z,38.77
2018-02-19T14:33:08.942Z,36.80
2018-02-19T14:35:35.318Z,24.20
2018-02-19T14:38:01.666Z,22.07
2018-02-19T14:40:28.162Z,20.80
2018-02-19T14:42:54.527Z,18.70
2018-02-19T14:45:20.905Z,15.37
2018-02-19T14:47:47.330Z,21.33
2018-02-19T14:50:13.744Z,16.70
2018-02-19T14:52:40.153Z,14.80
2018-02-19T14:55:06.709Z,24.77
2018-02-19T14:57:33.062Z,27.00
2018-02-19T14:59:59.418Z,23.90
2018-02-19T15:02:25.870Z,12.73
2018-02-19T15:04:52.250Z,14.90
2018-02-19T15:07:18.638Z,14.07
2018-02-19T15:09:45.102Z,13.67
2018-02-19T15:12:11.522Z,13.20
2018-02-19T15:14:37.866Z,15.27
2018-02-19T15:17:04.273Z,15.60
2018-02-19T15:19:30.663Z,16.27
2018-02-19T15:21:57.003Z,18.80
2018-02-19T15:24:23.426Z,20.03
2018-02-19T15:26:49.765Z,17.77
2018-02-19T15:29:16.104Z,22.27
2018-02-19T15:31:42.521Z,22.93
2018-02-19T15:34:08.893Z,30.10
2018-02-19T15:36:35.230Z,20.60
2018-02-19T15:39:01.617Z,22.67
2018-02-19T15:41:27.992Z,26.80
2018-02-19T15:43:54.327Z,25.53
2018-02-19T15:46:20.729Z,28.23
2018-02-19T15:48:47.082Z,25.70
2018-02-19T15:51:13.425Z,29.77
2018-02-19T15:53:39.765Z,23.33
2018-02-19T15:56:06.113Z,19.90
2018-02-19T15:58:32.520Z,17.20
2018-02-19T16:00:58.950Z,25.80
2018-02-19T16:03:25.326Z,25.77
2018-02-19T16:05:51.674Z,24.40
2018-02-19T16:08:18.040Z,26.70
2018-02-19T16:10:44.394Z,24.97
2018-02-19T16:13:10.722Z,22.30
2018-02-19T16:15:37.181Z,30.83
2018-02-19T16:18:03.682Z,32.57
2018-02-19T16:20:30.082Z,36.33
2018-02-19T16:22:56.453Z,38.07
2018-02-19T16:25:22.918Z,45.10
2018-02-19T16:27:49.257Z,59.20
2018-02-19T16:30:15.704Z,68.27
2018-02-19T16:32:42.158Z,69.83
2018-02-19T16:35:08.566Z,75.67
2018-02-19T16:37:34.904Z,73.73
2018-02-19T16:40:01.594Z,72.23
2018-02-19T16:42:27.913Z,77.70
2018-02-19T16:44:54.246Z,70.43
2018-02-19T16:47:20.736Z,73.93
2018-02-19T16:49:47.078Z,68.47
2018-02-19T16:52:13.428Z,76.67
2018-02-19T16:54:39.816Z,82.83
2018-02-19T16:57:06.190Z,73.13
2018-02-19T16:59:32.590Z,58.57
2018-02-19T17:01:58.978Z,60.20
2018-02-19T17:04:25.321Z,64.17
2018-02-19T17:06:51.694Z,67.37
2018-02-19T17:09:18.058Z,60.93
2018-02-19T17:11:44.420Z,45.63
2018-02-19T17:14:10.769Z,37.97
2018-02-19T17:16:37.164Z,36.20
2018-02-19T17:19:03.529Z,30.03
2018-02-19T17:21:29.936Z,22.93
2018-02-19T17:23:56.335Z,25.67
2018-02-19T17:26:22.709Z,21.10
2018-02-19T17:28:49.054Z,18.43
2018-02-19T17:31:15.467Z,19.17
2018-02-19T17:33:41.793Z,19.50
2018-02-19T17:36:08.193Z,18.53
2018-02-19T17:38:34.590Z,14.77
2018-02-19T17:41:00.947Z,17.33
2018-02-19T17:43:27.309Z,14.70
2018-02-19T17:45:53.709Z,14.40
2018-02-19T17:48:20.070Z,11.87
2018-02-19T17:50:46.397Z,19.53
2018-02-19T17:53:12.777Z,21.30
2018-02-19T17:55:39.123Z,19.40
2018-02-19T17:58:05.489Z,17.37
2018-02-19T18:00:31.898Z,16.47
2018-02-19T18:02:58.241Z,15.33
2018-02-19T18:05:24.585Z,9.27
2018-02-19T18:07:50.993Z,8.43
2018-02-19T18:10:17.353Z,11.67
2018-02-19T18:12:43.725Z,8.83
2018-02-19T18:15:10.185Z,12.07
2018-02-19T18:17:36.549Z,10.80
2018-02-19T18:20:02.971Z,11.03
2018-02-19T18:22:29.357Z,13.60
2018-02-19T18:24:55.750Z,8.37
2018-02-19T18:27:22.150Z,10.07
2018-02-19T18:29:48.537Z,14.27
2018-02-19T18:32:14.949Z,18.03
2018-02-19T18:34:41.313Z,15.30
2018-02-19T18:37:07.695Z,14.63
2018-02-19T18:39:34.046Z,15.63
2018-02-19T18:42:00.450Z,12.80
2018-02-19T18:44:26.908Z,10.37
2018-02-19T18:46:53.257Z,14.43
2018-02-19T18:49:19.613Z,21.40
2018-02-19T18:51:46.047Z,22.97
2018-02-19T18:54:12.388Z,20.37
2018-02-19T18:56:38.813Z,20.73
2018-02-19T18:59:05.284Z,33.43
2018-02-19T19:01:31.782Z,29.90
2018-02-19T19:03:58.165Z,30.70
2018-02-19T19:06:24.581Z,27.00
2018-02-19T19:09:03.187Z,29.37
2018-02-19T19:11:29.574Z,20.80
2018-02-19T19:13:55.938Z,18.73
2018-02-19T19:16:22.357Z,16.20
2018-02-19T19:18:48.770Z,17.27
2018-02-19T19:21:15.121Z,18.17
2018-02-19T19:23:41.497Z,18.23
2018-02-19T19:26:07.893Z,18.30
2018-02-19T19:28:34.249Z,17.47
2018-02-19T19:31:00.660Z,15.80
2018-02-19T19:33:27.061Z,13.93
2018-02-19T19:35:53.458Z,13.90
2018-02-19T19:38:19.920Z,9.70
2018-02-19T19:40:46.326Z,10.03
2018-02-19T19:43:12.677Z,8.33
2018-02-19T19:45:39.091Z,7.27
2018-02-19T19:48:05.658Z,9.33
2018-02-19T19:50:32.099Z,11.57
2018-02-19T19:52:58.431Z,12.83
2018-02-19T19:55:24.861Z,13.80
2018-02-19T19:57:51.217Z,14.60
2018-02-19T20:00:17.590Z,13.50
2018-02-19T20:02:44.034Z,13.67
2018-02-19T20:05:10.409Z,10.00
2018-02-19T20:07:36.765Z,7.37
2018-02-19T20:10:03.174Z,9.67
2018-02-19T20:12:29.517Z,7.13
2018-02-19T20:14:55.914Z,7.90
2018-02-19T20:17:22.323Z,6.57
2018-02-19T20:19:48.666Z,7.73
2018-02-19T20:22:14.994Z,7.77
2018-02-19T20:24:41.409Z,9.17
2018-02-19T20:27:07.781Z,8.00
2018-02-19T20:29:34.130Z,9.07
2018-02-19T20:32:00.542Z,10.63
2018-02-19T20:34:26.953Z,8.37
2018-02-19T20:36:53.329Z,9.63
2018-02-19T20:39:19.760Z,9.40
2018-02-19T20:41:46.518Z,10.90
2018-02-19T20:44:12.866Z,12.47
2018-02-19T20:46:39.283Z,13.67
2018-02-19T20:49:05.629Z,10.57
2018-02-19T20:51:31.997Z,11.50
2018-02-19T20:53:58.393Z,15.57
2018-02-19T20:56:24.741Z,14.70
2018-02-19T20:58:51.089Z,17.70
2018-02-19T21:01:17.576Z,15.97
2018-02-19T21:03:44.193Z,20.47
2018-02-19T21:06:10.586Z,19.07
2018-02-19T21:08:36.977Z,16.77
2018-02-19T21:11:03.361Z,13.50
2018-02-19T21:13:29.781Z,19.17
2018-02-19T21:15:56.180Z,21.30
2018-02-19T21:18:22.551Z,17.03
2018-02-19T21:20:49.003Z,17.90
2018-02-19T21:23:15.434Z,18.47
2018-02-19T21:25:41.777Z,17.23
2018-02-19T21:28:08.123Z,18.67
2018-02-19T21:30:34.555Z,19.43
2018-02-19T21:33:00.910Z,21.43
2018-02-19T21:35:27.249Z,22.53
2018-02-19T21:37:53.693Z,16.40
2018-02-19T21:40:20.034Z,20.57
2018-02-19T21:42:46.389Z,25.23
2018-02-19T21:45:12.806Z,23.20
2018-02-19T21:47:39.157Z,21.70
2018-02-19T21:50:05.705Z,21.17
2018-02-19T21:52:32.106Z,21.33
2018-02-19T21:54:58.510Z,23.23
2018-02-19T21:57:24.861Z,18.40
2018-02-19T21:59:51.252Z,20.53
2018-02-19T22:02:17.579Z,19.93
2018-02-19T22:04:43.927Z,21.63
2018-02-19T22:07:10.481Z,18.00
2018-02-19T22:09:36.829Z,17.93
2018-02-19T22:12:03.204Z,18.03
2018-02-19T22:14:29.566Z,19.47
2018-02-19T22:16:55.965Z,14.03
2018-02-19T22:19:22.294Z,20.23
2018-02-19T22:21:48.626Z,18.07
2018-02-19T22:24:14.985Z,19.70
2018-02-19T22:26:41.338Z,22.47
2018-02-19T22:29:07.697Z,19.57
2018-02-19T22:31:34.102Z,17.23
2018-02-19T22:34:00.469Z,20.27
2018-02-19T22:36:26.825Z,22.03
2018-02-19T22:38:53.267Z,18.67
2018-02-19T22:41:19.621Z,17.50
2018-02-19T22:43:45.958Z,16.90
2018-02-19T22:46:12.346Z,19.73
2018-02-19T22:48:38.673Z,21.17
2018-02-19T22:51:05.053Z,21.20
2018-02-19T22:53:31.445Z,17.57
2018-02-19T22:55:57.782Z,19.33
2018-02-19T22:58:24.124Z,20.70
2018-02-19T23:00:50.468Z,21.83
2018-02-19T23:03:16.865Z,19.50
2018-02-19T23:05:43.259Z,19.03
2018-02-19T23:08:09.599Z,26.03
2018-02-19T23:10:36.026Z,19.90
2018-02-19T23:13:02.352Z,23.07
2018-02-19T23:15:28.722Z,17.63
2018-02-19T23:17:55.098Z,20.03
2018-02-19T23:20:21.443Z,21.07
2018-02-19T23:22:47.819Z,20.00
2018-02-19T23:25:14.157Z,21.10
2018-02-19T23:27:40.485Z,22.53
2018-02-19T23:30:06.875Z,21.57
2018-02-19T23:32:33.250Z,27.13
2018-02-19T23:35:02.440Z,25.43
2018-02-19T23:37:26.008Z,22.90
2018-02-19T23:39:52.342Z,24.83
2018-02-19T23:42:18.677Z,24.03
2018-02-19T23:44:45.073Z,23.40
2018-02-19T23:47:11.413Z,25.20
2018-02-19T23:49:37.745Z,27.00
2018-02-19T23:52:04.120Z,25.20
2018-02-19T23:54:34.489Z,25.60
2018-02-19T23:57:00.860Z,25.37
2018-02-19T23:59:27.245Z,25.33
